createdAt,value
2022-09-25T00:01:10.963Z,81.52
2022-09-25T00:03:38.671Z,82.32
2022-09-25T00:06:15.885Z,83.35
2022-09-25T00:08:43.873Z,83.11
2022-09-25T00:11:24.746Z,82.93
2022-09-25T00:13:52.113Z,82.52
2022-09-25T00:16:24.475Z,83.37
2022-09-25T00:19:10.419Z,84.42
2022-09-25T00:21:38.445Z,84.44
2022-09-25T00:24:09.705Z,84.70
2022-09-25T00:26:41.007Z,83.92
2022-09-25T00:29:13.864Z,82.88
2022-09-25T00:31:40.824Z,83.17
2022-09-25T00:34:08.509Z,83.97
2022-09-25T00:36:35.939Z,83.16
2022-09-25T00:39:02.956Z,81.98
2022-09-25T00:41:32.113Z,82.76
2022-09-25T00:44:01.833Z,84.26
2022-09-25T00:46:38.317Z,83.96
2022-09-25T00:49:22.395Z,83.69
2022-09-25T00:52:06.720Z,83.77
2022-09-25T00:54:53.221Z,83.28
2022-09-25T00:57:26.749Z,84.13
2022-09-25T01:00:00.693Z,83.10
2022-09-25T01:02:33.617Z,82.60
2022-09-25T01:05:11.001Z,81.73
2022-09-25T01:07:41.939Z,83.68
2022-09-25T01:10:10.465Z,83.51
2022-09-25T01:12:43.432Z,84.12
2022-09-25T01:15:13.752Z,82.90
2022-09-25T01:18:26.074Z,82.97
2022-09-25T01:21:35.276Z,83.08
2022-09-25T01:25:20.078Z,82.65
2022-09-25T01:28:31.230Z,82.35
2022-09-25T01:31:05.335Z,82.48
2022-09-25T01:33:43.543Z,82.65
2022-09-25T01:36:25.398Z,82.35
2022-09-25T01:39:03.195Z,82.28
2022-09-25T01:41:41.580Z,82.67
2022-09-25T01:44:23.256Z,82.82
2022-09-25T01:46:53.884Z,81.99
2022-09-25T01:49:37.277Z,82.15
2022-09-25T01:52:13.699Z,81.80
2022-09-25T01:54:53.203Z,82.10
2022-09-25T01:57:33.336Z,83.17
2022-09-25T02:00:06.575Z,82.73
2022-09-25T02:02:43.409Z,82.70
2022-09-25T02:05:33.506Z,82.03
2022-09-25T02:08:14.857Z,81.43
2022-09-25T02:10:55.994Z,81.29
2022-09-25T02:13:27.590Z,81.32
2022-09-25T02:15:59.951Z,81.73
2022-09-25T02:18:47.719Z,83.29
2022-09-25T02:21:22.983Z,82.75
2022-09-25T02:23:59.241Z,82.42
2022-09-25T02:26:34.252Z,81.64
2022-09-25T02:29:02.536Z,81.46
2022-09-25T02:31:40.453Z,81.39
2022-09-25T02:34:13.827Z,80.86
2022-09-25T02:36:43.236Z,81.04
2022-09-25T02:39:11.923Z,80.80
2022-09-25T02:42:03.407Z,81.85
2022-09-25T02:45:07.792Z,81.68
2022-09-25T02:47:55.346Z,82.10
2022-09-25T02:51:05.220Z,81.56
2022-09-25T02:54:27.930Z,82.44
2022-09-25T02:57:19.753Z,82.35
2022-09-25T02:59:56.025Z,82.33
2022-09-25T03:02:25.024Z,81.98
2022-09-25T03:04:53.702Z,81.96
2022-09-25T03:07:21.320Z,82.06
2022-09-25T03:09:52.122Z,81.86
2022-09-25T03:12:19.082Z,81.97
2022-09-25T03:14:46.841Z,82.22
2022-09-25T03:17:16.169Z,83.05
2022-09-25T03:19:43.092Z,84.02
2022-09-25T03:22:10.182Z,84.75
2022-09-25T03:24:38.487Z,85.19
2022-09-25T03:27:05.454Z,85.37
2022-09-25T03:29:32.724Z,85.60
2022-09-25T03:31:59.705Z,86.07
2022-09-25T03:34:26.675Z,86.20
2022-09-25T03:36:53.600Z,85.85
2022-09-25T03:39:20.751Z,86.33
2022-09-25T03:41:48.008Z,86.08
2022-09-25T03:44:15.363Z,85.73
2022-09-25T03:46:42.322Z,86.42
2022-09-25T03:49:10.734Z,86.25
2022-09-25T03:51:38.928Z,86.28
2022-09-25T03:54:06.136Z,86.00
2022-09-25T03:56:33.828Z,86.00
2022-09-25T03:59:01.286Z,84.93
2022-09-25T04:01:29.337Z,84.82
2022-09-25T04:03:56.788Z,84.97
2022-09-25T04:06:26.392Z,85.49
2022-09-25T04:08:54.375Z,86.18
2022-09-25T04:11:24.342Z,85.83
2022-09-25T04:13:52.746Z,85.77
2022-09-25T04:16:23.339Z,86.22
2022-09-25T04:18:50.740Z,86.49
2022-09-25T04:21:17.829Z,86.45
2022-09-25T04:24:04.734Z,86.15
2022-09-25T04:26:32.442Z,85.57
2022-09-25T04:29:01.677Z,85.39
2022-09-25T04:31:29.961Z,85.64
2022-09-25T04:33:56.977Z,85.01
2022-09-25T04:36:23.936Z,84.44
2022-09-25T04:38:50.888Z,84.54
2022-09-25T04:41:20.088Z,84.19
2022-09-25T04:43:47.498Z,83.62
2022-09-25T04:46:20.860Z,82.51
2022-09-25T04:48:48.493Z,82.21
2022-09-25T04:51:15.528Z,82.23
2022-09-25T04:53:42.855Z,83.19
2022-09-25T04:56:15.366Z,81.32
2022-09-25T04:58:50.571Z,77.28
2022-09-25T05:01:20.677Z,75.40
2022-09-25T05:03:54.123Z,72.04
2022-09-25T05:06:22.540Z,71.14
2022-09-25T05:08:50.296Z,65.04
2022-09-25T05:11:17.292Z,61.49
2022-09-25T05:13:46.870Z,60.96
2022-09-25T05:16:14.263Z,58.41
2022-09-25T05:18:41.271Z,58.02
2022-09-25T05:21:08.214Z,56.79
2022-09-25T05:23:35.220Z,57.13
2022-09-25T05:26:02.899Z,58.06
2022-09-25T05:28:32.079Z,58.48
2022-09-25T05:31:04.431Z,58.79
2022-09-25T05:33:35.865Z,57.09
2022-09-25T05:36:07.643Z,57.58
2022-09-25T05:38:39.524Z,57.58
2022-09-25T05:41:09.821Z,49.72
2022-09-25T05:43:43.220Z,47.12
2022-09-25T05:46:11.300Z,45.52
2022-09-25T05:48:38.642Z,43.50
2022-09-25T05:51:05.946Z,40.11
2022-09-25T05:53:33.137Z,39.18
2022-09-25T05:56:03.695Z,35.39
2022-09-25T05:58:33.506Z,34.64
2022-09-25T06:01:03.339Z,33.88
2022-09-25T06:03:31.368Z,33.49
2022-09-25T06:06:00.173Z,32.87
2022-09-25T06:08:29.007Z,33.06
2022-09-25T06:10:55.991Z,32.43
2022-09-25T06:13:25.357Z,32.50
2022-09-25T06:15:53.278Z,31.67
2022-09-25T06:18:22.458Z,31.05
2022-09-25T06:20:50.406Z,30.22
2022-09-25T06:23:18.890Z,30.55
2022-09-25T06:25:46.722Z,29.63
2022-09-25T06:28:13.666Z,29.70
2022-09-25T06:30:40.833Z,29.07
2022-09-25T06:33:12.742Z,28.84
2022-09-25T06:35:47.821Z,28.32
2022-09-25T06:38:17.187Z,28.11
2022-09-25T06:40:45.320Z,26.95
2022-09-25T06:43:15.970Z,26.24
2022-09-25T06:45:43.775Z,26.00
2022-09-25T06:48:14.119Z,26.12
2022-09-25T06:50:48.004Z,26.35
2022-09-25T06:53:17.099Z,26.40
2022-09-25T06:55:47.295Z,26.26
2022-09-25T06:58:21.667Z,25.51
2022-09-25T07:00:56.216Z,26.49
2022-09-25T07:03:42.599Z,26.29
2022-09-25T07:06:12.112Z,26.38
2022-09-25T07:08:39.995Z,27.04
2022-09-25T07:11:07.515Z,25.90
2022-09-25T07:13:36.209Z,27.41
2022-09-25T07:16:12.837Z,26.08
2022-09-25T07:18:40.195Z,25.25
2022-09-25T07:21:15.357Z,25.35
2022-09-25T07:23:43.271Z,26.37
2022-09-25T07:26:11.232Z,26.14
2022-09-25T07:28:41.187Z,25.77
2022-09-25T07:31:20.433Z,25.59
2022-09-25T07:33:48.291Z,26.14
2022-09-25T07:36:17.577Z,27.39
2022-09-25T07:38:49.892Z,28.29
2022-09-25T07:41:18.531Z,30.02
2022-09-25T07:43:45.883Z,28.38
2022-09-25T07:46:13.135Z,26.75
2022-09-25T07:48:40.342Z,26.87
2022-09-25T07:51:12.172Z,28.03
2022-09-25T07:53:41.223Z,27.58
2022-09-25T07:56:09.553Z,27.95
2022-09-25T07:58:36.629Z,26.66
2022-09-25T08:01:07.607Z,27.91
2022-09-25T08:03:35.060Z,28.70
2022-09-25T08:06:11.961Z,28.80
2022-09-25T08:08:43.072Z,28.22
2022-09-25T08:11:13.525Z,27.49
2022-09-25T08:13:42.329Z,28.15
2022-09-25T08:16:15.909Z,29.49
2022-09-25T08:18:46.792Z,30.39
2022-09-25T08:21:17.510Z,30.90
2022-09-25T08:23:52.594Z,31.23
2022-09-25T08:26:21.292Z,29.88
2022-09-25T08:28:48.479Z,30.78
2022-09-25T08:31:15.779Z,31.17
2022-09-25T08:33:49.912Z,30.85
2022-09-25T08:36:18.054Z,31.68
2022-09-25T08:38:45.771Z,31.65
2022-09-25T08:41:27.988Z,31.43
2022-09-25T08:44:37.285Z,31.45
2022-09-25T08:47:37.959Z,31.44
2022-09-25T08:50:24.599Z,30.24
2022-09-25T08:53:12.190Z,29.86
2022-09-25T08:56:02.900Z,29.00
2022-09-25T08:58:42.639Z,28.92
2022-09-25T09:01:20.898Z,28.92
2022-09-25T09:04:09.662Z,28.58
2022-09-25T09:06:41.033Z,28.40
2022-09-25T09:09:22.099Z,30.62
2022-09-25T09:11:57.873Z,30.55
2022-09-25T09:14:30.948Z,29.63
2022-09-25T09:17:12.439Z,29.17
2022-09-25T09:19:40.289Z,30.87
2022-09-25T09:22:11.661Z,31.28
2022-09-25T09:25:17.591Z,29.24
2022-09-25T09:28:12.810Z,29.64
2022-09-25T09:31:13.929Z,29.77
2022-09-25T09:34:40.918Z,31.48
2022-09-25T09:37:35.047Z,30.52
2022-09-25T09:40:51.768Z,30.37
2022-09-25T09:43:38.034Z,29.77
2022-09-25T09:46:25.510Z,30.74
2022-09-25T09:49:25.272Z,29.26
2022-09-25T09:52:08.234Z,30.05
2022-09-25T09:54:59.474Z,30.91
2022-09-25T09:57:33.024Z,30.16
2022-09-25T10:00:06.316Z,29.97
2022-09-25T10:02:54.610Z,30.79
2022-09-25T10:05:43.015Z,30.89
2022-09-25T10:08:10.883Z,31.28
2022-09-25T10:10:54.072Z,32.50
2022-09-25T10:13:32.903Z,31.48
2022-09-25T10:16:22.764Z,32.17
2022-09-25T10:19:04.295Z,31.54
2022-09-25T10:21:40.245Z,31.23
2022-09-25T10:24:07.326Z,30.09
2022-09-25T10:26:39.941Z,30.34
2022-09-25T10:29:22.042Z,31.05
2022-09-25T10:31:57.058Z,30.71
2022-09-25T10:34:24.427Z,30.79
2022-09-25T10:36:54.353Z,30.72
2022-09-25T10:39:45.192Z,31.29
2022-09-25T10:42:41.352Z,30.08
2022-09-25T10:45:26.295Z,29.21
2022-09-25T10:48:12.081Z,29.83
2022-09-25T10:50:39.133Z,29.31
2022-09-25T10:53:07.669Z,29.54
2022-09-25T10:55:44.021Z,30.33
2022-09-25T10:58:10.868Z,29.82
2022-09-25T11:00:57.898Z,29.81
2022-09-25T11:03:41.592Z,29.39
2022-09-25T11:06:28.748Z,29.13
2022-09-25T11:09:22.067Z,30.89
2022-09-25T11:11:52.398Z,31.41
2022-09-25T11:14:32.716Z,30.65
2022-09-25T11:17:06.824Z,30.51
2022-09-25T11:19:38.770Z,30.83
2022-09-25T11:22:42.060Z,30.65
2022-09-25T11:25:29.820Z,30.98
2022-09-25T11:28:07.408Z,30.60
2022-09-25T11:31:14.879Z,31.17
2022-09-25T11:34:09.083Z,31.25
2022-09-25T11:36:45.912Z,31.00
2022-09-25T11:39:51.818Z,31.27
2022-09-25T11:42:53.775Z,31.73
2022-09-25T11:45:36.596Z,31.01
2022-09-25T11:48:23.413Z,30.62
2022-09-25T11:51:22.599Z,30.12
2022-09-25T11:54:32.026Z,31.16
2022-09-25T11:57:04.415Z,31.72
2022-09-25T11:59:59.381Z,31.94
2022-09-25T12:03:11.931Z,33.12
2022-09-25T12:06:15.876Z,33.44
2022-09-25T12:09:03.977Z,33.40
2022-09-25T12:11:53.900Z,33.32
2022-09-25T12:15:08.547Z,33.88
2022-09-25T12:17:54.210Z,33.85
2022-09-25T12:20:31.063Z,34.23
2022-09-25T12:23:25.432Z,33.47
2022-09-25T12:26:15.156Z,34.72
2022-09-25T12:29:39.277Z,34.86
2022-09-25T12:32:27.226Z,34.28
2022-09-25T12:35:19.035Z,35.02
2022-09-25T12:38:05.670Z,36.20
2022-09-25T12:41:00.935Z,35.42
2022-09-25T12:43:45.021Z,36.06
2022-09-25T12:46:53.105Z,36.35
2022-09-25T12:49:51.179Z,37.24
2022-09-25T12:52:33.319Z,37.10
2022-09-25T12:55:18.889Z,37.78
2022-09-25T12:57:54.571Z,37.65
2022-09-25T13:00:24.537Z,36.76
2022-09-25T13:03:23.892Z,37.83
2022-09-25T13:06:10.393Z,38.00
2022-09-25T13:08:57.934Z,38.57
2022-09-25T13:11:58.901Z,38.71
2022-09-25T13:14:48.368Z,38.19
2022-09-25T13:17:16.034Z,38.29
2022-09-25T13:19:42.984Z,37.81
2022-09-25T13:22:26.232Z,38.06
2022-09-25T13:25:13.729Z,38.28
2022-09-25T13:27:45.871Z,38.75
2022-09-25T13:30:29.322Z,39.23
2022-09-25T13:33:01.303Z,39.88
2022-09-25T13:35:29.236Z,39.34
2022-09-25T13:38:36.903Z,38.60
2022-09-25T13:41:14.456Z,38.44
2022-09-25T13:43:41.668Z,38.12
2022-09-25T13:46:18.012Z,38.38
2022-09-25T13:48:45.272Z,38.47
2022-09-25T13:51:20.571Z,39.28
2022-09-25T13:54:08.442Z,38.37
2022-09-25T13:56:41.383Z,38.50
2022-09-25T13:59:12.783Z,38.40
2022-09-25T14:01:44.903Z,38.57
2022-09-25T14:04:15.090Z,39.04
2022-09-25T14:06:44.757Z,39.08
2022-09-25T14:09:28.730Z,39.42
2022-09-25T14:12:39.110Z,39.70
2022-09-25T14:15:24.561Z,39.19
2022-09-25T14:17:55.896Z,40.08
2022-09-25T14:20:47.192Z,40.73
2022-09-25T14:23:27.204Z,40.67
2022-09-25T14:26:07.264Z,40.66
2022-09-25T14:28:45.195Z,41.83
2022-09-25T14:31:31.609Z,41.47
2022-09-25T14:34:30.701Z,41.70
2022-09-25T14:37:59.546Z,41.84
2022-09-25T14:40:39.795Z,41.85
2022-09-25T14:46:18.927Z,42.65
2022-09-25T14:49:20.118Z,42.54
2022-09-25T14:51:49.012Z,42.65
2022-09-25T14:54:21.781Z,42.70
2022-09-25T14:56:55.995Z,42.42
2022-09-25T14:59:43.362Z,43.16
2022-09-25T15:02:43.057Z,43.85
2022-09-25T15:05:24.240Z,43.04
2022-09-25T15:07:51.668Z,43.21
2022-09-25T15:10:29.725Z,43.28
2022-09-25T15:13:18.893Z,43.89
2022-09-25T15:16:15.259Z,44.74
2022-09-25T15:18:54.241Z,44.79
2022-09-25T15:21:25.609Z,44.56
2022-09-25T15:23:55.808Z,45.12
2022-09-25T15:26:23.336Z,45.75
2022-09-25T15:28:51.801Z,45.16
2022-09-25T15:31:19.126Z,44.50
2022-09-25T15:34:03.855Z,44.01
2022-09-25T15:36:31.003Z,44.79
2022-09-25T15:39:03.226Z,44.36
2022-09-25T15:41:30.432Z,44.77
2022-09-25T15:44:26.096Z,45.53
2022-09-25T15:47:00.682Z,46.14
2022-09-25T15:49:42.863Z,46.61
2022-09-25T15:52:25.149Z,46.75
2022-09-25T15:54:52.178Z,46.84
2022-09-25T15:57:29.229Z,46.70
2022-09-25T16:00:16.811Z,47.50
2022-09-25T16:03:21.306Z,48.18
2022-09-25T16:05:50.389Z,48.85
2022-09-25T16:08:36.329Z,49.82
2022-09-25T16:11:22.610Z,50.75
2022-09-25T16:13:54.410Z,50.63
2022-09-25T16:16:31.271Z,49.86
2022-09-25T16:19:21.506Z,49.41
2022-09-25T16:21:49.004Z,49.53
2022-09-25T16:24:25.830Z,50.20
2022-09-25T16:27:02.712Z,50.69
2022-09-25T16:29:39.158Z,50.13
2022-09-25T16:32:15.178Z,50.74
2022-09-25T16:34:50.485Z,50.86
2022-09-25T16:37:23.858Z,51.11
2022-09-25T16:40:17.765Z,51.80
2022-09-25T16:42:47.432Z,51.79
2022-09-25T16:45:29.472Z,52.36
2022-09-25T16:48:00.616Z,52.87
2022-09-25T16:50:33.381Z,53.34
2022-09-25T16:53:03.465Z,53.48
2022-09-25T16:55:30.742Z,53.67
2022-09-25T16:57:58.566Z,54.05
2022-09-25T17:00:28.323Z,54.19
2022-09-25T17:02:55.909Z,55.01
2022-09-25T17:05:26.899Z,55.14
2022-09-25T17:08:00.074Z,55.65
2022-09-25T17:10:31.735Z,56.10
2022-09-25T17:13:01.787Z,57.17
2022-09-25T17:15:36.605Z,56.75
2022-09-25T17:18:11.945Z,57.60
2022-09-25T17:20:38.850Z,57.80
2022-09-25T17:23:06.620Z,57.76
2022-09-25T17:25:52.863Z,57.43
2022-09-25T17:28:19.932Z,57.62
2022-09-25T17:30:46.955Z,57.85
2022-09-25T17:33:21.524Z,57.89
2022-09-25T17:36:05.984Z,59.32
2022-09-25T17:38:34.123Z,59.17
2022-09-25T17:41:06.099Z,59.66
2022-09-25T17:43:33.326Z,59.56
2022-09-25T17:46:01.258Z,60.12
2022-09-25T17:48:31.494Z,61.03
2022-09-25T17:51:19.387Z,60.93
2022-09-25T17:53:49.033Z,60.86
2022-09-25T17:56:16.088Z,61.28
2022-09-25T17:58:44.533Z,61.38
2022-09-25T18:01:22.417Z,61.39
2022-09-25T18:03:56.287Z,61.41
2022-09-25T18:06:25.230Z,62.30
2022-09-25T18:08:54.484Z,63.34
2022-09-25T18:11:23.371Z,62.74
2022-09-25T18:14:01.001Z,62.59
2022-09-25T18:16:31.974Z,63.33
2022-09-25T18:19:17.989Z,64.87
2022-09-25T18:22:03.820Z,66.60
2022-09-25T18:24:30.798Z,66.67
2022-09-25T18:26:58.314Z,68.16
2022-09-25T18:29:25.849Z,66.74
2022-09-25T18:31:53.147Z,65.19
2022-09-25T18:34:21.866Z,64.74
2022-09-25T18:36:52.138Z,65.38
2022-09-25T18:39:20.422Z,65.07
2022-09-25T18:41:48.376Z,64.83
2022-09-25T18:44:17.902Z,65.91
2022-09-25T18:46:45.324Z,66.70
2022-09-25T18:49:12.576Z,66.23
2022-09-25T18:51:40.182Z,66.41
2022-09-25T18:54:08.795Z,66.78
2022-09-25T18:56:36.093Z,66.87
2022-09-25T18:59:07.611Z,67.68
2022-09-25T19:01:36.151Z,67.65
2022-09-25T19:04:03.891Z,66.66
2022-09-25T19:06:30.976Z,67.35
2022-09-25T19:08:59.481Z,67.05
2022-09-25T19:11:31.134Z,66.91
2022-09-25T19:13:58.929Z,67.49
2022-09-25T19:16:26.015Z,68.20
2022-09-25T19:18:53.025Z,69.48
2022-09-25T19:21:26.440Z,68.87
2022-09-25T19:23:54.102Z,69.53
2022-09-25T19:26:25.862Z,69.00
2022-09-25T19:28:53.283Z,71.04
2022-09-25T19:31:24.466Z,72.30
2022-09-25T19:33:53.017Z,72.14
2022-09-25T19:36:26.984Z,71.63
2022-09-25T19:38:54.644Z,71.68
2022-09-25T19:41:38.063Z,72.00
2022-09-25T19:44:13.136Z,72.57
2022-09-25T19:46:47.939Z,72.46
2022-09-25T19:49:17.858Z,73.29
2022-09-25T19:51:45.402Z,73.16
2022-09-25T19:54:14.825Z,73.72
2022-09-25T19:56:42.428Z,74.50
2022-09-25T19:59:15.240Z,74.44
2022-09-25T20:01:43.222Z,75.34
2022-09-25T20:04:15.725Z,75.08
2022-09-25T20:06:44.345Z,75.73
2022-09-25T20:09:11.723Z,75.81
2022-09-25T20:11:38.693Z,76.30
2022-09-25T20:14:07.557Z,76.25
2022-09-25T20:16:36.248Z,77.06
2022-09-25T20:19:06.451Z,76.89
2022-09-25T20:21:38.670Z,77.00
2022-09-25T20:24:08.011Z,77.07
2022-09-25T20:26:36.556Z,77.37
2022-09-25T20:29:08.830Z,77.57
2022-09-25T20:31:38.262Z,78.47
2022-09-25T20:34:05.652Z,79.69
2022-09-25T20:36:32.853Z,79.82
2022-09-25T20:39:01.012Z,80.04
2022-09-25T20:41:27.951Z,79.74
2022-09-25T20:43:57.630Z,80.21
2022-09-25T20:46:26.482Z,80.96
2022-09-25T20:48:57.530Z,81.80
2022-09-25T20:51:35.257Z,81.63
2022-09-25T20:54:08.981Z,81.52
2022-09-25T20:56:38.144Z,81.93
2022-09-25T20:59:05.964Z,82.02
2022-09-25T21:01:36.736Z,82.57
2022-09-25T21:04:08.051Z,82.46
2022-09-25T21:06:38.093Z,82.42
2022-09-25T21:09:08.956Z,82.35
2022-09-25T21:11:37.479Z,82.12
2022-09-25T21:14:04.585Z,82.67
2022-09-25T21:16:33.341Z,82.91
2022-09-25T21:19:04.581Z,83.14
2022-09-25T21:21:33.419Z,83.37
2022-09-25T21:24:01.379Z,83.37
2022-09-25T21:26:31.085Z,82.88
2022-09-25T21:29:01.134Z,83.30
2022-09-25T21:31:33.853Z,83.31
2022-09-25T21:34:01.222Z,83.56
2022-09-25T21:36:28.879Z,82.94
2022-09-25T21:38:56.585Z,83.43
2022-09-25T21:41:26.996Z,83.83
2022-09-25T21:44:00.201Z,84.04
2022-09-25T21:46:28.243Z,84.55
2022-09-25T21:49:05.269Z,84.96
2022-09-25T21:51:38.466Z,85.44
2022-09-25T21:54:08.667Z,84.65
2022-09-25T21:56:36.284Z,84.80
2022-09-25T21:59:08.761Z,85.04
2022-09-25T22:01:39.542Z,85.09
2022-09-25T22:04:10.363Z,85.20
2022-09-25T22:06:41.275Z,85.48
2022-09-25T22:09:19.149Z,85.28
2022-09-25T22:11:48.014Z,85.84
2022-09-25T22:14:16.645Z,86.00
2022-09-25T22:16:47.160Z,85.50
2022-09-25T22:19:23.312Z,85.60
2022-09-25T22:21:52.467Z,86.37
2022-09-25T22:24:20.008Z,85.98
2022-09-25T22:26:48.984Z,85.86
2022-09-25T22:29:17.236Z,86.03
2022-09-25T22:31:44.543Z,86.34
2022-09-25T22:34:26.423Z,86.30
2022-09-25T22:36:58.997Z,86.16
2022-09-25T22:39:28.750Z,86.44
2022-09-25T22:41:56.358Z,87.44
2022-09-25T22:44:24.176Z,87.49
2022-09-25T22:46:51.353Z,86.35
2022-09-25T22:49:18.714Z,87.16
2022-09-25T22:51:46.153Z,87.25
2022-09-25T22:54:14.673Z,87.32
2022-09-25T22:56:42.590Z,87.45
2022-09-25T22:59:16.179Z,87.72
2022-09-25T23:01:52.765Z,87.97
2022-09-25T23:04:23.657Z,88.47
2022-09-25T23:06:51.467Z,87.88
2022-09-25T23:09:22.519Z,88.34
2022-09-25T23:11:50.072Z,88.92
2022-09-25T23:14:35.189Z,88.95
2022-09-25T23:17:02.188Z,89.23
2022-09-25T23:19:29.187Z,89.66
2022-09-25T23:21:56.529Z,89.00
2022-09-25T23:24:24.388Z,89.46
2022-09-25T23:26:51.942Z,89.96
2022-09-25T23:29:20.905Z,90.02
2022-09-25T23:31:49.907Z,89.93
2022-09-25T23:34:17.326Z,90.36
2022-09-25T23:36:44.415Z,90.28
2022-09-25T23:39:17.243Z,91.06
2022-09-25T23:41:44.194Z,91.02
2022-09-25T23:44:12.155Z,90.72
2022-09-25T23:46:42.716Z,91.06
2022-09-25T23:49:10.822Z,90.94
2022-09-25T23:51:38.592Z,91.10
2022-09-25T23:54:06.082Z,90.92
2022-09-25T23:56:35.390Z,91.40
2022-09-25T23:59:04.674Z,91.38
